createdAt,value
2019-01-05T00:01:50.330Z,0.67
2019-01-05T00:04:36.890Z,0.70
2019-01-05T00:07:23.421Z,0.60
2019-01-05T00:10:10.025Z,0.70
2019-01-05T00:12:56.414Z,0.57
2019-01-05T00:15:32.474Z,0.43
2019-01-05T00:18:21.206Z,0.50
2019-01-05T00:21:03.621Z,0.50
2019-01-05T00:23:39.657Z,0.50
2019-01-05T00:26:26.017Z,0.40
2019-01-05T00:29:01.855Z,0.70
2019-01-05T00:31:50.509Z,0.40
2019-01-05T00:34:32.986Z,0.40
2019-01-05T00:37:09.137Z,0.50
2019-01-05T00:39:45.046Z,0.53
2019-01-05T00:42:26.902Z,0.50
2019-01-05T00:45:12.161Z,0.50
2019-01-05T00:47:57.756Z,0.53
2019-01-05T00:50:44.422Z,0.40
2019-01-05T00:53:30.650Z,0.50
2019-01-05T00:56:17.190Z,0.30
2019-01-05T00:59:02.265Z,0.40
2019-01-05T01:01:34.917Z,0.50
2019-01-05T01:04:14.258Z,0.40
2019-01-05T01:06:50.452Z,0.43
2019-01-05T01:09:29.329Z,0.57
2019-01-05T01:11:59.402Z,0.30
2019-01-05T01:14:38.738Z,0.60
2019-01-05T01:17:11.822Z,0.40
2019-01-05T01:19:56.993Z,0.30
2019-01-05T01:22:35.854Z,0.40
2019-01-05T01:25:22.342Z,0.50
2019-01-05T01:28:09.217Z,0.50
2019-01-05T01:30:39.237Z,0.40
2019-01-05T01:33:27.678Z,0.40
2019-01-05T01:36:09.541Z,0.50
2019-01-05T01:38:48.911Z,0.60
2019-01-05T01:41:27.834Z,0.40
2019-01-05T01:44:14.526Z,0.50
2019-01-05T01:46:56.605Z,0.53
2019-01-05T01:49:35.670Z,0.80
2019-01-05T01:52:08.374Z,0.77
2019-01-05T01:54:38.413Z,0.90
2019-01-05T01:57:25.893Z,0.70
2019-01-05T01:59:59.806Z,0.60
2019-01-05T02:02:32.818Z,0.70
2019-01-05T02:05:05.762Z,0.70
2019-01-05T02:07:38.722Z,0.60
2019-01-05T02:10:25.554Z,0.60
2019-01-05T02:13:01.466Z,0.80
2019-01-05T02:15:35.370Z,0.67
2019-01-05T02:18:14.458Z,0.60
2019-01-05T02:21:10.190Z,0.60
2019-01-05T02:24:04.081Z,0.50
2019-01-05T02:27:15.245Z,0.60
2019-01-05T02:30:03.582Z,0.70
2019-01-05T02:32:45.514Z,0.60
2019-01-05T02:35:42.986Z,0.50
2019-01-05T02:38:24.582Z,0.70
2019-01-05T02:41:20.746Z,0.63
2019-01-05T02:44:22.890Z,0.50
2019-01-05T02:47:10.350Z,0.60
2019-01-05T02:50:01.730Z,0.43
2019-01-05T02:52:52.982Z,0.40
2019-01-05T02:55:45.659Z,0.50
2019-01-05T02:58:47.256Z,0.60
2019-01-05T03:01:46.338Z,0.40
2019-01-05T03:04:37.056Z,0.40
2019-01-05T03:07:40.609Z,0.40
2019-01-05T03:10:31.099Z,0.30
2019-01-05T03:13:49.138Z,0.40
2019-01-05T03:16:34.078Z,0.30
2019-01-05T03:19:19.202Z,0.20
2019-01-05T03:22:15.247Z,0.30
2019-01-05T03:25:03.478Z,0.43
2019-01-05T03:27:58.198Z,0.40
2019-01-05T03:30:52.560Z,0.47
2019-01-05T03:33:40.555Z,0.40
2019-01-05T03:36:35.406Z,0.33
2019-01-05T03:39:44.613Z,0.50
2019-01-05T03:42:20.694Z,0.40
2019-01-05T03:45:20.982Z,0.40
2019-01-05T03:48:15.309Z,0.30
2019-01-05T03:51:14.251Z,0.50
2019-01-05T03:53:50.662Z,0.40
2019-01-05T03:57:02.789Z,0.60
2019-01-05T04:00:19.840Z,0.53
2019-01-05T04:03:14.208Z,0.40
2019-01-05T04:06:28.770Z,0.40
2019-01-05T04:09:23.327Z,0.50
2019-01-05T04:12:05.201Z,0.50
2019-01-05T04:15:05.830Z,0.47
2019-01-05T04:18:07.094Z,0.40
2019-01-05T04:20:58.062Z,0.50
2019-01-05T04:24:04.334Z,0.40
2019-01-05T04:26:59.968Z,0.40
2019-01-05T04:29:52.774Z,0.37
2019-01-05T04:32:37.834Z,0.40
2019-01-05T04:35:34.975Z,0.50
2019-01-05T04:38:24.970Z,0.50
2019-01-05T04:41:25.486Z,0.50
2019-01-05T04:44:48.369Z,0.50
2019-01-05T04:47:30.458Z,0.40
2019-01-05T04:50:27.185Z,0.40
2019-01-05T04:53:31.502Z,0.43
2019-01-05T04:56:27.643Z,0.50
2019-01-05T04:59:07.014Z,0.60
2019-01-05T05:02:05.615Z,0.53
2019-01-05T05:05:05.874Z,0.60
2019-01-05T05:07:56.975Z,0.57
2019-01-05T05:10:39.365Z,0.60
2019-01-05T05:13:36.478Z,0.50
2019-01-05T05:16:43.078Z,0.60
2019-01-05T05:19:37.581Z,0.50
2019-01-05T05:22:13.935Z,0.70
2019-01-05T05:25:26.894Z,0.70
2019-01-05T05:28:50.089Z,0.60
2019-01-05T05:32:01.322Z,0.70
2019-01-05T05:34:52.400Z,0.50
2019-01-05T05:37:56.945Z,0.60
2019-01-05T05:40:35.765Z,0.90
2019-01-05T05:43:53.570Z,0.60
2019-01-05T05:46:46.040Z,0.63
2019-01-05T05:49:41.810Z,0.80
2019-01-05T05:52:31.594Z,0.80
2019-01-05T05:55:33.033Z,0.67
2019-01-05T05:58:45.838Z,0.83
2019-01-05T06:01:44.818Z,0.87
2019-01-05T06:04:39.578Z,0.80
2019-01-05T06:07:53.687Z,0.90
2019-01-05T06:10:59.046Z,0.97
2019-01-05T06:13:51.240Z,0.80
2019-01-05T06:16:33.463Z,0.90
2019-01-05T06:19:34.658Z,0.90
2019-01-05T06:22:17.379Z,0.87
2019-01-05T06:24:59.831Z,1.03
2019-01-05T06:28:08.051Z,0.67
2019-01-05T06:31:06.529Z,0.80
2019-01-05T06:33:42.746Z,1.03
2019-01-05T06:36:32.657Z,1.07
2019-01-05T06:39:17.962Z,0.90
2019-01-05T06:42:11.818Z,1.10
2019-01-05T06:45:09.342Z,1.30
2019-01-05T06:47:56.826Z,1.40
2019-01-05T06:50:48.206Z,1.20
2019-01-05T06:53:56.348Z,1.17
2019-01-05T06:56:53.738Z,1.30
2019-01-05T06:59:59.773Z,1.20
2019-01-05T07:02:47.965Z,1.00
2019-01-05T07:05:55.930Z,1.40
2019-01-05T07:09:08.646Z,1.20
2019-01-05T07:11:59.759Z,1.00
2019-01-05T07:14:47.993Z,1.20
2019-01-05T07:17:42.610Z,1.27
2019-01-05T07:20:21.626Z,1.17
2019-01-05T07:23:25.010Z,1.40
2019-01-05T07:26:47.722Z,1.40
2019-01-05T07:29:58.186Z,1.30
2019-01-05T07:32:43.478Z,2.17
2019-01-05T07:35:37.469Z,1.50
2019-01-05T07:38:49.587Z,1.20
2019-01-05T07:41:56.126Z,1.30
2019-01-05T07:45:14.334Z,1.00
2019-01-05T07:48:30.503Z,1.17
2019-01-05T07:51:52.366Z,1.40
2019-01-05T07:54:58.998Z,1.20
2019-01-05T07:57:38.074Z,1.40
2019-01-05T08:00:46.282Z,1.40
2019-01-05T08:03:37.437Z,1.20
2019-01-05T08:06:37.933Z,1.33
2019-01-05T08:09:32.198Z,1.57
2019-01-05T08:12:22.008Z,1.63
2019-01-05T08:15:17.674Z,1.47
2019-01-05T08:18:24.623Z,1.37
2019-01-05T08:21:26.734Z,1.30
2019-01-05T08:24:42.586Z,1.20
2019-01-05T08:28:05.726Z,1.30
2019-01-05T08:30:58.607Z,1.30
2019-01-05T08:34:15.824Z,0.83
2019-01-05T08:37:27.838Z,1.37
2019-01-05T08:40:29.694Z,1.00
2019-01-05T08:43:40.674Z,1.30
2019-01-05T08:46:54.598Z,1.20
2019-01-05T08:50:11.378Z,1.10
2019-01-05T08:53:14.881Z,0.80
2019-01-05T08:56:13.746Z,1.10
2019-01-05T08:59:08.026Z,1.20
2019-01-05T09:02:22.441Z,0.90
2019-01-05T09:05:19.410Z,0.77
2019-01-05T09:08:13.657Z,1.20
2019-01-05T09:10:52.668Z,1.00
2019-01-05T09:14:07.750Z,1.10
2019-01-05T09:17:06.882Z,1.10
2019-01-05T09:19:58.110Z,1.00
2019-01-05T09:23:10.621Z,1.00
2019-01-05T09:26:07.750Z,0.87
2019-01-05T09:29:10.902Z,0.80
2019-01-05T09:32:19.731Z,0.80
2019-01-05T09:35:39.570Z,0.80
2019-01-05T09:38:46.430Z,0.80
2019-01-05T09:41:39.366Z,0.97
2019-01-05T09:44:29.818Z,1.03
2019-01-05T09:47:34.758Z,0.80
2019-01-05T09:50:42.831Z,0.73
2019-01-05T09:53:49.566Z,1.33
2019-01-05T09:56:57.218Z,0.80
2019-01-05T09:59:46.894Z,0.80
2019-01-05T10:02:50.720Z,0.60
2019-01-05T10:05:29.695Z,0.60
2019-01-05T10:08:14.826Z,0.80
2019-01-05T10:11:07.329Z,0.83
2019-01-05T10:13:55.794Z,0.70
2019-01-05T10:17:02.334Z,0.67
2019-01-05T10:20:04.563Z,0.80
2019-01-05T10:23:15.038Z,1.00
2019-01-05T10:26:14.298Z,0.70
2019-01-05T10:29:10.101Z,0.90
2019-01-05T10:32:31.543Z,0.90
2019-01-05T10:35:37.698Z,0.80
2019-01-05T10:38:28.948Z,0.60
2019-01-05T10:41:32.087Z,1.07
2019-01-05T10:44:51.130Z,1.27
2019-01-05T10:48:14.582Z,0.70
2019-01-05T10:51:15.986Z,0.90
2019-01-05T10:54:27.110Z,0.80
2019-01-05T10:57:31.318Z,0.70
2019-01-05T11:00:36.203Z,0.80
2019-01-05T11:03:48.752Z,0.87
2019-01-05T11:06:28.000Z,1.13
2019-01-05T11:09:27.748Z,1.10
2019-01-05T11:12:25.760Z,1.07
2019-01-05T11:15:35.610Z,1.20
2019-01-05T11:18:20.594Z,0.90
2019-01-05T11:21:27.430Z,0.73
2019-01-05T11:24:21.718Z,1.10
2019-01-05T11:27:40.051Z,0.70
2019-01-05T11:30:30.700Z,0.80
2019-01-05T11:33:21.621Z,0.80
2019-01-05T11:36:30.695Z,0.90
2019-01-05T11:39:21.957Z,0.80
2019-01-05T11:42:12.537Z,0.50
2019-01-05T11:45:08.426Z,0.80
2019-01-05T11:48:03.634Z,0.90
2019-01-05T11:51:14.966Z,0.70
2019-01-05T11:54:36.276Z,0.70
2019-01-05T11:57:56.588Z,0.87
2019-01-05T12:01:02.380Z,0.67
2019-01-05T12:03:55.008Z,0.70
2019-01-05T12:06:43.243Z,0.77
2019-01-05T12:09:52.630Z,0.70
2019-01-05T12:12:54.202Z,0.60
2019-01-05T12:15:46.726Z,0.50
2019-01-05T12:18:43.802Z,0.70
2019-01-05T12:21:51.675Z,0.67
2019-01-05T12:25:16.895Z,0.70
2019-01-05T12:28:06.194Z,0.60
2019-01-05T12:31:06.539Z,0.77
2019-01-05T12:33:57.178Z,0.63
2019-01-05T12:36:54.530Z,0.70
2019-01-05T12:40:00.998Z,0.70
2019-01-05T12:43:18.658Z,0.90
2019-01-05T12:46:03.926Z,0.83
2019-01-05T12:49:19.614Z,0.90
2019-01-05T12:52:17.102Z,0.93
2019-01-05T12:55:11.358Z,1.03
2019-01-05T12:58:35.895Z,0.83
2019-01-05T13:01:48.782Z,0.93
2019-01-05T13:04:44.998Z,1.00
2019-01-05T13:07:46.946Z,0.73
2019-01-05T13:10:55.174Z,1.10
2019-01-05T13:13:44.671Z,0.80
2019-01-05T13:16:23.367Z,0.70
2019-01-05T13:19:24.035Z,0.97
2019-01-05T13:22:08.562Z,0.90
2019-01-05T13:24:59.496Z,0.70
2019-01-05T13:28:07.783Z,0.83
2019-01-05T13:31:14.162Z,0.90
2019-01-05T13:34:11.382Z,0.97
2019-01-05T13:37:01.253Z,0.80
2019-01-05T13:39:55.998Z,1.10
2019-01-05T13:43:02.392Z,0.90
2019-01-05T13:46:03.998Z,1.00
2019-01-05T13:49:16.171Z,1.20
2019-01-05T13:52:10.366Z,0.60
2019-01-05T13:54:42.126Z,1.10
2019-01-05T13:57:12.280Z,0.87
2019-01-05T13:59:44.798Z,0.90
2019-01-05T14:02:26.759Z,0.77
2019-01-05T14:04:56.790Z,0.93
2019-01-05T14:07:38.771Z,0.90
2019-01-05T14:10:15.574Z,0.80
2019-01-05T14:12:54.730Z,1.00
2019-01-05T14:15:43.110Z,1.00
2019-01-05T14:18:15.978Z,1.00
2019-01-05T14:21:02.490Z,0.80
2019-01-05T14:23:35.485Z,0.90
2019-01-05T14:26:17.814Z,0.90
2019-01-05T14:29:03.528Z,1.03
2019-01-05T14:31:42.826Z,1.17
2019-01-05T14:34:31.354Z,1.00
2019-01-05T14:37:04.182Z,1.13
2019-01-05T14:39:34.218Z,1.30
2019-01-05T14:42:04.244Z,1.20
2019-01-05T14:44:34.274Z,1.00
2019-01-05T14:47:04.309Z,0.90
2019-01-05T14:49:50.986Z,1.00
2019-01-05T14:52:21.018Z,1.30
2019-01-05T14:54:54.014Z,1.00
2019-01-05T14:57:36.151Z,1.10
2019-01-05T15:00:15.466Z,1.03
2019-01-05T15:02:48.438Z,1.30
2019-01-05T15:05:18.467Z,1.30
2019-01-05T15:07:48.492Z,1.20
2019-01-05T15:10:18.971Z,1.20
2019-01-05T15:13:05.214Z,1.10
2019-01-05T15:15:50.413Z,1.40
2019-01-05T15:18:26.230Z,1.10
2019-01-05T15:20:58.769Z,1.10
2019-01-05T15:23:28.790Z,1.43
2019-01-05T15:26:01.606Z,2.03
2019-01-05T15:28:31.628Z,1.47
2019-01-05T15:31:01.654Z,1.10
2019-01-05T15:33:48.078Z,1.50
2019-01-05T15:36:34.333Z,1.33
2019-01-05T15:39:22.798Z,1.20
2019-01-05T15:42:04.874Z,1.30
2019-01-05T15:44:51.210Z,1.30
2019-01-05T15:47:24.117Z,1.37
2019-01-05T15:49:54.538Z,1.33
2019-01-05T15:52:24.562Z,1.30
2019-01-05T15:55:06.659Z,0.97
2019-01-05T15:57:52.964Z,1.40
2019-01-05T16:00:25.762Z,1.20
2019-01-05T16:03:11.078Z,1.33
2019-01-05T16:05:59.070Z,1.20
2019-01-05T16:08:35.019Z,1.23
2019-01-05T16:11:14.038Z,1.27
2019-01-05T16:14:02.171Z,1.30
2019-01-05T16:16:41.342Z,1.17
2019-01-05T16:19:14.134Z,1.10
2019-01-05T16:21:47.526Z,1.67
2019-01-05T16:24:32.638Z,2.10
2019-01-05T16:27:02.795Z,2.17
2019-01-05T16:29:35.790Z,2.30
2019-01-05T16:32:11.953Z,2.83
2019-01-05T16:34:50.934Z,3.83
2019-01-05T16:37:39.458Z,3.90
2019-01-05T16:40:16.574Z,3.90
2019-01-05T16:42:46.694Z,5.67
2019-01-05T16:45:22.777Z,4.60
2019-01-05T16:47:52.817Z,3.97
2019-01-05T16:50:39.376Z,3.83
2019-01-05T16:53:09.524Z,3.60
2019-01-05T16:55:39.550Z,3.13
2019-01-05T16:58:21.925Z,2.73
2019-01-05T17:00:54.638Z,2.30
2019-01-05T17:03:40.098Z,2.50
2019-01-05T17:06:28.199Z,2.30
2019-01-05T17:09:13.321Z,2.43
2019-01-05T17:11:43.350Z,1.77
2019-01-05T17:14:29.928Z,2.40
2019-01-05T17:16:59.955Z,2.00
2019-01-05T17:19:39.454Z,1.90
2019-01-05T17:22:18.458Z,2.20
2019-01-05T17:24:57.361Z,2.47
2019-01-05T17:27:39.390Z,2.40
2019-01-05T17:30:27.907Z,2.07
2019-01-05T17:33:07.077Z,2.00
2019-01-05T17:35:39.798Z,2.30
2019-01-05T17:38:26.118Z,2.20
2019-01-05T17:40:56.230Z,2.10
2019-01-05T17:43:42.802Z,2.90
2019-01-05T17:46:18.777Z,2.23
2019-01-05T17:49:05.405Z,2.33
2019-01-05T17:51:35.470Z,2.40
2019-01-05T17:54:21.690Z,2.40
2019-01-05T17:57:06.808Z,2.37
2019-01-05T17:59:49.008Z,2.70
2019-01-05T18:02:19.031Z,2.53
2019-01-05T18:07:56.121Z,2.30
2019-01-05T18:10:44.150Z,2.60
2019-01-05T18:13:26.180Z,2.53
2019-01-05T18:16:12.438Z,3.17
2019-01-05T18:18:45.350Z,3.03
2019-01-05T18:21:21.375Z,2.53
2019-01-05T18:24:03.795Z,2.67
2019-01-05T18:26:36.818Z,2.40
2019-01-05T18:29:23.419Z,2.80
2019-01-05T18:32:05.350Z,2.80
2019-01-05T18:34:41.866Z,2.73
2019-01-05T18:37:14.526Z,2.70
2019-01-05T18:40:01.161Z,2.20
2019-01-05T18:42:40.455Z,2.87
2019-01-05T18:45:27.171Z,2.87
2019-01-05T18:47:57.220Z,2.67
2019-01-05T18:50:33.295Z,2.40
2019-01-05T18:53:15.222Z,2.63
2019-01-05T18:55:54.293Z,2.70
2019-01-05T18:58:27.071Z,2.63
2019-01-05T19:00:59.819Z,2.80
2019-01-05T19:03:44.890Z,3.00
2019-01-05T19:06:17.878Z,3.20
2019-01-05T19:09:04.040Z,3.10
2019-01-05T19:11:41.182Z,2.93
2019-01-05T19:14:20.384Z,3.57
2019-01-05T19:17:05.692Z,3.00
2019-01-05T19:19:54.360Z,3.40
2019-01-05T19:22:27.308Z,3.00
2019-01-05T19:24:59.899Z,3.20
2019-01-05T19:27:38.762Z,2.60
2019-01-05T19:30:26.034Z,3.23
2019-01-05T19:33:08.494Z,2.87
2019-01-05T19:35:54.727Z,2.37
2019-01-05T19:38:48.215Z,2.40
2019-01-05T19:41:29.425Z,2.50
2019-01-05T19:44:17.900Z,2.20
2019-01-05T19:47:03.022Z,2.30
2019-01-05T19:49:51.372Z,2.47
2019-01-05T19:52:24.247Z,1.80
2019-01-05T19:54:57.114Z,2.30
2019-01-05T19:57:35.902Z,2.00
2019-01-05T20:00:11.246Z,2.07
2019-01-05T20:02:50.298Z,2.40
2019-01-05T20:05:36.646Z,2.00
2019-01-05T20:08:19.072Z,1.90
2019-01-05T20:11:05.645Z,2.20
2019-01-05T20:13:41.697Z,1.83
2019-01-05T20:16:17.689Z,2.03
2019-01-05T20:18:47.714Z,1.63
2019-01-05T20:21:30.288Z,2.07
2019-01-05T20:24:00.308Z,2.10
2019-01-05T20:26:30.330Z,2.37
2019-01-05T20:29:06.423Z,2.23
2019-01-05T20:31:51.566Z,1.93
2019-01-05T20:34:27.579Z,2.50
2019-01-05T20:36:57.671Z,2.50
2019-01-05T20:39:27.703Z,2.00
2019-01-05T20:42:26.137Z,2.37
2019-01-05T20:45:14.271Z,2.53
2019-01-05T20:48:00.544Z,2.03
2019-01-05T20:50:48.819Z,2.43
2019-01-05T20:53:24.909Z,2.50
2019-01-05T20:56:11.342Z,2.43
2019-01-05T20:58:57.366Z,2.37
2019-01-05T21:01:30.414Z,2.63
2019-01-05T21:04:18.827Z,2.27
2019-01-05T21:06:57.517Z,2.57
2019-01-05T21:09:39.794Z,2.60
2019-01-05T21:12:15.346Z,2.00
2019-01-05T21:14:45.486Z,2.23
2019-01-05T21:17:27.863Z,2.27
2019-01-05T21:20:03.942Z,2.23
2019-01-05T21:22:33.966Z,2.50
2019-01-05T21:25:03.999Z,2.07
2019-01-05T21:27:39.819Z,2.70
2019-01-05T21:30:11.378Z,2.07
2019-01-05T21:32:50.431Z,2.23
2019-01-05T21:35:36.629Z,2.40
2019-01-05T21:38:07.004Z,2.20
2019-01-05T21:40:37.024Z,2.50
2019-01-05T21:43:16.220Z,2.33
2019-01-05T21:45:46.254Z,2.30
2019-01-05T21:48:32.968Z,2.47
2019-01-05T21:51:21.045Z,2.30
2019-01-05T21:54:06.401Z,2.17
2019-01-05T21:56:36.438Z,2.30
2019-01-05T21:59:06.458Z,2.50
2019-01-05T22:01:51.574Z,2.80
2019-01-05T22:04:38.160Z,1.97
2019-01-05T22:07:08.220Z,2.23
2019-01-05T22:09:53.266Z,2.23
2019-01-05T22:12:23.586Z,2.03
2019-01-05T22:15:11.986Z,2.27
2019-01-05T22:17:57.522Z,2.07
2019-01-05T22:20:33.447Z,2.30
2019-01-05T22:23:06.166Z,1.97
2019-01-05T22:25:52.415Z,2.20
2019-01-05T22:28:25.489Z,2.13
2019-01-05T22:30:58.208Z,2.27
2019-01-05T22:33:40.458Z,2.10
2019-01-05T22:36:25.316Z,2.13
2019-01-05T22:38:55.454Z,2.00
2019-01-05T22:41:28.330Z,2.73
2019-01-05T22:44:04.462Z,1.90
2019-01-05T22:46:50.794Z,2.20
2019-01-05T22:49:36.866Z,1.83
2019-01-05T22:52:12.875Z,1.67
2019-01-05T22:54:45.694Z,2.07
2019-01-05T22:57:31.191Z,1.90
2019-01-05T23:00:01.666Z,1.97
2019-01-05T23:02:34.651Z,1.80
2019-01-05T23:05:22.605Z,2.20
2019-01-05T23:08:08.821Z,1.80
2019-01-05T23:10:41.698Z,2.23
2019-01-05T23:13:14.538Z,2.03
2019-01-05T23:15:53.900Z,1.80
2019-01-05T23:18:38.895Z,1.90
2019-01-05T23:21:09.390Z,1.90
2019-01-05T23:23:41.930Z,1.70
2019-01-05T23:26:37.302Z,1.60
2019-01-05T23:29:25.527Z,2.10
2019-01-05T23:32:13.818Z,1.97
2019-01-05T23:34:46.798Z,1.97
2019-01-05T23:37:33.266Z,2.50
2019-01-05T23:40:17.015Z,2.57
2019-01-05T23:42:52.866Z,2.33
2019-01-05T23:45:29.034Z,2.30
2019-01-05T23:48:04.518Z,2.10
2019-01-05T23:50:40.381Z,2.33
2019-01-05T23:53:26.746Z,1.90
2019-01-05T23:56:03.038Z,2.13
2019-01-05T23:58:47.935Z,2.00
